Impacts METAR Board INFO
IDs:

KDEN - Denver Intl, CO, US

Updated at: 1223 UTC 19 Nov 2017
Potential Impact None Slight Moderate High
Time19/00Z 19/01Z 19/02Z 19/03Z 19/04Z 19/05Z 19/06Z 19/07Z 19/08Z 19/09Z 19/10Z 19/11Z 19/12Z
VIS10 10 10 10 10 10 10 10 10 10 10 10 10
CIG-- -- -- -- -- -- -- -- -- -- -- -- --
CoverFEWCLRCLRCLRCLRCLRCLRCLRCLRCLRCLRFEWSCT
FltCatVFRVFRVFRVFRVFRVFRVFRVFRVFRVFRVFRVFRVFR
WX--------------------------
WDir1601901301500210210210220200240180170
WSpd10 9 5 4 4 6 9 7 9 8 4 3 6
WGst-- -- -- -- -- -- -- -- -- -- -- -- --
Raw hourly METARs
KDEN 182353Z 16010KT 10SM FEW100 FEW220 01/M05 A3018 RMK AO2 SLP237 T00111050 10072 20011 53003
KDEN 190053Z 19009KT 10SM CLR 01/M06 A3020 RMK AO2 SLP241 T00061056
KDEN 190153Z 13005KT 10SM CLR M02/M06 A3020 RMK AO2 SLP247 T10171061
KDEN 190253Z 15004KT 10SM CLR M01/M09 A3021 RMK AO2 SLP245 T10061089 53008
KDEN 190353Z VRB04KT 10SM CLR 01/M10 A3021 RMK AO2 SLP237 T00061100
KDEN 190453Z 21006KT 10SM CLR M02/M09 A3021 RMK AO2 SLP240 T10171089
KDEN 190553Z 21009KT 10SM CLR M01/M08 A3021 RMK AO2 SLP237 T10111078 10039 21044 56001
KDEN 190653Z 21007KT 10SM CLR 00/M09 A3020 RMK AO2 SLP230 T00001089 400721044
KDEN 190753Z 22009KT 10SM CLR M01/M09 A3020 RMK AO2 SLP227 T10061089
KDEN 190853Z 20008KT 10SM CLR M04/M09 A3019 RMK AO2 SLP230 T10391094 57006
KDEN 190953Z 24004KT 10SM CLR M02/M10 A3019 RMK AO2 SLP223 T10171100
KDEN 191053Z 18003KT 10SM FEW220 M03/M10 A3016 RMK AO2 SLP221 T10331100
KDEN 191153Z 17006KT 10SM SCT220 M02/M11 A3016 RMK AO2 SLP228 T10221106 10006 21050 58008